Time;durP1;ratioP1;P1;durP2;ratioP2;P2;SDS_P1;SDS_P2;PMS_P1;PMS_P2;Temp;Humidity;BMP_temperature;BMP_pressure;BME280_temperature;BME280_humidity;BME280_pressure;Samples;Min_cycle;Max_cycle;Signal;HPM_P1;HPM_P2
2022/09/27 00:01:07;;;;;;;34.33;20.98;;;;;;;9.17;100.00;98987.94;5016811;28;20079;-73
2022/09/27 00:03:34;;;;;;;34.70;20.73;;;;;;;9.21;100.00;98984.84;4996479;28;20034;-74
2022/09/27 00:06:25;;;;;;;36.40;21.10;;;;;;;9.27;100.00;98982.78;5015714;28;20189;-73
2022/09/27 00:08:51;;;;;;;30.75;18.65;;;;;;;9.31;100.00;98976.81;5015627;28;20034;-73
2022/09/27 00:11:28;;;;;;;30.23;19.13;;;;;;;9.35;100.00;98974.50;5016629;28;20030;-73
2022/09/27 00:13:55;;;;;;;29.40;19.35;;;;;;;9.39;100.00;98975.03;5015457;28;20605;-74
2022/09/27 00:16:23;;;;;;;30.83;17.67;;;;;;;9.42;100.00;98973.97;4999220;28;20026;-73
2022/09/27 00:18:50;;;;;;;27.27;17.63;;;;;;;9.38;100.00;98968.53;4999249;28;20561;-73
2022/09/27 00:21:16;;;;;;;29.98;18.42;;;;;;;9.38;100.00;98965.69;5015326;28;20038;-74
2022/09/27 00:23:43;;;;;;;31.15;18.35;;;;;;;9.41;100.00;98964.66;5016662;28;20160;-73
2022/09/27 00:26:11;;;;;;;27.40;17.15;;;;;;;9.40;100.00;98968.00;5016487;28;20511;-73
2022/09/27 00:28:38;;;;;;;34.00;18.10;;;;;;;9.38;100.00;98962.84;5015403;28;20133;-73
2022/09/27 00:31:13;;;;;;;33.25;17.70;;;;;;;9.36;100.00;98954.03;5016671;28;20025;-73
2022/09/27 00:33:40;;;;;;;25.73;17.23;;;;;;;9.35;100.00;98954.56;4999412;28;20030;-73
2022/09/27 00:36:05;;;;;;;32.85;19.05;;;;;;;9.31;100.00;98948.31;5015134;28;20097;-73
2022/09/27 00:38:31;;;;;;;28.73;17.70;;;;;;;9.27;100.00;98943.66;5016035;28;20017;-73
2022/09/27 00:40:57;;;;;;;28.77;17.20;;;;;;;9.29;100.00;98940.28;5014691;28;20034;-73
2022/09/27 00:43:22;;;;;;;30.27;18.48;;;;;;;9.29;100.00;98940.28;5014970;28;20037;-73
2022/09/27 00:45:56;;;;;;;28.83;18.40;;;;;;;9.26;100.00;98930.69;4979852;28;20026;-73
2022/09/27 00:48:26;;;;;;;30.48;19.15;;;;;;;9.26;100.00;98933.53;5013532;28;20034;-73
2022/09/27 00:50:55;;;;;;;31.48;17.90;;;;;;;9.20;100.00;98938.47;5013510;28;20099;-72
2022/09/27 00:53:29;;;;;;;30.15;17.92;;;;;;;9.17;100.00;98936.66;5014794;28;20029;-73
2022/09/27 00:56:09;;;;;;;28.75;17.65;;;;;;;9.13;100.00;98930.44;5015171;28;20087;-73
2022/09/27 00:58:47;;;;;;;28.73;18.58;;;;;;;9.10;100.00;98945.69;5015719;28;20126;-73
2022/09/27 01:01:15;;;;;;;36.03;18.42;;;;;;;9.10;100.00;98939.25;4998110;28;20528;-72
2022/09/27 01:03:46;;;;;;;24.83;16.90;;;;;;;9.06;100.00;98930.16;4997123;28;20032;-75
2022/09/27 01:06:13;;;;;;;30.55;18.27;;;;;;;9.01;100.00;98931.72;5013423;28;20022;-73
2022/09/27 01:08:41;;;;;;;30.20;18.73;;;;;;;9.00;100.00;98920.84;5014427;28;20073;-73
2022/09/27 01:11:12;;;;;;;31.52;18.23;;;;;;;8.95;100.00;98918.75;5013328;28;20022;-73
2022/09/27 01:14:15;;;;;;;29.70;19.02;;;;;;;8.90;100.00;98913.84;5014370;28;20497;-72
2022/09/27 01:17:17;;;;;;;29.38;19.02;;;;;;;8.82;100.00;98911.47;5014853;28;20030;-73
2022/09/27 01:19:45;;;;;;;33.20;18.20;;;;;;;8.74;100.00;98901.13;5015471;28;20034;-73
2022/09/27 01:22:18;;;;;;;28.08;18.27;;;;;;;8.68;100.00;98903.94;5014059;28;20401;-72
2022/09/27 01:25:06;;;;;;;30.08;18.45;;;;;;;8.62;100.00;98890.97;5014488;28;20029;-72
2022/09/27 01:27:59;;;;;;;34.80;19.23;;;;;;;8.55;100.00;98891.50;5013973;28;20132;-74
2022/09/27 01:30:53;;;;;;;32.28;17.77;;;;;;;8.48;100.00;98889.13;5014058;28;20114;-72
2022/09/27 01:33:41;;;;;;;34.22;19.50;;;;;;;8.38;100.00;98877.97;5015724;28;20014;-73
2022/09/27 01:36:22;;;;;;;32.08;18.95;;;;;;;8.35;100.00;98878.25;5015299;28;20037;-74
2022/09/27 01:39:13;;;;;;;32.85;20.40;;;;;;;8.27;100.00;98871.47;5013997;28;20026;-72
2022/09/27 01:41:53;;;;;;;32.37;19.47;;;;;;;8.22;100.00;98869.38;5015452;28;20030;-73
2022/09/27 01:44:48;;;;;;;33.53;18.67;;;;;;;8.20;100.00;98860.59;5015240;28;20812;-72
2022/09/27 01:47:18;;;;;;;34.30;19.65;;;;;;;8.15;100.00;98862.09;5014737;28;20077;-72
2022/09/27 01:50:08;;;;;;;29.80;18.83;;;;;;;8.11;100.00;98864.41;4981437;28;20030;-72
2022/09/27 01:52:40;;;;;;;31.63;18.63;;;;;;;8.06;100.00;98855.88;4997600;28;20038;-72
2022/09/27 01:55:07;;;;;;;28.40;18.45;;;;;;;8.00;100.00;98853.00;4981463;28;20037;-73
2022/09/27 01:57:48;;;;;;;32.15;18.35;;;;;;;7.97;100.00;98859.69;5013009;28;20104;-72
2022/09/27 02:00:15;;;;;;;35.22;20.02;;;;;;;7.93;100.00;98857.09;5013727;28;20034;-73
2022/09/27 02:03:13;;;;;;;31.50;18.23;;;;;;;7.92;100.00;98847.00;4997086;28;20018;-73
2022/09/27 02:06:00;;;;;;;34.03;19.40;;;;;;;7.91;100.00;98850.38;4997294;28;20080;-73
2022/09/27 02:08:59;;;;;;;31.80;18.30;;;;;;;7.85;100.00;98838.97;4997287;28;20022;-73
2022/09/27 02:11:26;;;;;;;32.88;19.00;;;;;;;7.81;100.00;98832.75;5009532;28;20037;-74
2022/09/27 02:14:40;;;;;;;33.60;18.42;;;;;;;7.76;100.00;98827.03;4997081;28;20080;-74
2022/09/27 02:17:27;;;;;;;36.15;19.17;;;;;;;7.72;100.00;98823.66;5004803;28;20034;-73
2022/09/27 02:20:24;;;;;;;32.67;20.05;;;;;;;7.72;100.00;98815.88;5014533;28;20422;-73
2022/09/27 02:23:15;;;;;;;28.98;18.13;;;;;;;7.75;100.00;98817.72;5013148;28;20036;-73
2022/09/27 02:25:54;;;;;;;32.53;18.20;;;;;;;7.79;100.00;98809.72;5014674;28;20032;-72
2022/09/27 02:28:35;;;;;;;28.42;18.13;;;;;;;7.82;100.00;98808.69;5013085;28;20100;-73
2022/09/27 02:31:01;;;;;;;31.90;17.88;;;;;;;7.89;100.00;98804.59;5013018;28;20025;-73
2022/09/27 02:33:33;;;;;;;29.30;17.73;;;;;;;7.88;100.00;98797.34;5013334;28;20025;-73
2022/09/27 02:35:59;;;;;;;29.63;17.50;;;;;;;7.91;100.00;98799.19;4996654;28;20029;-72
2022/09/27 02:38:24;;;;;;;31.40;17.45;;;;;;;7.95;100.00;98796.88;4996478;28;20056;-74
2022/09/27 02:40:50;;;;;;;30.38;17.63;;;;;;;7.95;100.00;98796.88;4996462;28;20053;-73
2022/09/27 02:43:33;;;;;;;29.63;17.73;;;;;;;7.98;100.00;98793.75;5013963;28;20029;-73
2022/09/27 02:46:16;;;;;;;28.70;17.23;;;;;;;8.02;100.00;98787.81;5012839;28;20032;-74
2022/09/27 02:48:50;;;;;;;29.02;17.17;;;;;;;8.10;100.00;98791.75;4995139;28;20052;-73
2022/09/27 02:51:32;;;;;;;29.83;17.65;;;;;;;8.12;100.00;98777.75;5013015;28;20029;-73
2022/09/27 02:54:08;;;;;;;29.70;17.33;;;;;;;8.15;100.00;98779.59;5011849;28;20541;-74
2022/09/27 02:57:04;;;;;;;30.48;17.15;;;;;;;8.20;100.00;98775.25;5014183;28;20026;-74
2022/09/27 02:59:29;;;;;;;27.65;16.83;;;;;;;8.24;100.00;98778.59;5011689;28;20145;-74
2022/09/27 03:02:20;;;;;;;30.88;16.77;;;;;;;8.28;100.00;98774.22;5012814;28;20101;-73
2022/09/27 03:04:50;;;;;;;28.30;17.63;;;;;;;8.30;100.00;98782.25;5012293;28;20045;-73
2022/09/27 03:07:20;;;;;;;26.63;17.00;;;;;;;8.33;100.00;98769.81;5012279;28;20467;-73
2022/09/27 03:09:51;;;;;;;25.52;15.77;;;;;;;8.38;100.00;98780.44;5013343;28;20044;-73
2022/09/27 03:12:25;;;;;;;27.50;17.15;;;;;;;8.38;100.00;98777.59;5016722;28;20137;-73
2022/09/27 03:15:04;;;;;;;25.20;17.08;;;;;;;8.38;100.00;98778.38;5015432;28;20080;-74
2022/09/27 03:17:29;;;;;;;24.55;15.45;;;;;;;8.36;100.00;98760.28;5015306;28;20018;-73
2022/09/27 03:19:57;;;;;;;26.38;16.02;;;;;;;8.42;100.00;98774.47;5016821;28;20022;-73
2022/09/27 03:22:29;;;;;;;29.02;15.77;;;;;;;8.38;100.00;98764.13;5015180;28;20040;-72
2022/09/27 03:24:55;;;;;;;25.98;16.48;;;;;;;8.37;100.00;98761.78;5016809;28;20022;-72
2022/09/27 03:27:21;;;;;;;27.88;16.15;;;;;;;8.34;100.00;98755.09;5014949;28;20073;-73
2022/09/27 03:29:48;;;;;;;26.48;15.65;;;;;;;8.31;100.00;98753.25;5016412;28;20076;-74
2022/09/27 03:32:13;;;;;;;24.33;16.35;;;;;;;8.28;100.00;98753.50;5016601;28;20033;-73
2022/09/27 03:34:49;;;;;;;26.50;16.98;;;;;;;8.31;100.00;98753.25;4998754;28;20046;-73
2022/09/27 03:37:14;;;;;;;24.58;15.57;;;;;;;8.29;100.00;98747.31;5016277;28;20112;-73
2022/09/27 03:39:43;;;;;;;27.55;16.42;;;;;;;8.29;100.00;98744.47;5015541;28;20124;-73
2022/09/27 03:42:08;;;;;;;29.15;15.80;;;;;;;8.29;100.00;98738.00;5015153;28;20037;-73
2022/09/27 03:44:33;;;;;;;24.50;15.07;;;;;;;8.26;100.00;98736.94;4998511;28;20740;-74
2022/09/27 03:47:03;;;;;;;22.55;14.80;;;;;;;8.27;100.00;98726.34;5014729;28;20080;-74
2022/09/27 03:49:31;;;;;;;22.80;15.57;;;;;;;8.26;100.00;98724.81;5016521;28;20025;-73
2022/09/27 03:51:57;;;;;;;27.33;16.30;;;;;;;8.29;100.00;98738.78;5015051;28;20041;-74
2022/09/27 03:54:32;;;;;;;25.67;15.20;;;;;;;8.32;100.00;98728.41;5014635;28;20034;-73
2022/09/27 03:56:59;;;;;;;27.02;15.30;;;;;;;8.33;100.00;98729.97;5016034;28;20105;-73
2022/09/27 03:59:25;;;;;;;25.65;15.18;;;;;;;8.36;100.00;98729.72;5014582;28;20061;-73
2022/09/27 04:01:57;;;;;;;23.35;15.48;;;;;;;8.40;100.00;98735.16;5015628;28;20426;-73
2022/09/27 04:04:22;;;;;;;24.67;16.08;;;;;;;8.43;100.00;98731.28;4998266;28;20116;-73
2022/09/27 04:06:48;;;;;;;24.88;15.48;;;;;;;8.48;100.00;98729.72;5015598;28;20045;-74
2022/09/27 04:09:26;;;;;;;24.63;14.93;;;;;;;8.50;100.00;98727.16;5015455;28;20033;-74
2022/09/27 04:11:51;;;;;;;27.92;15.05;;;;;;;8.55;100.00;98715.75;5016614;28;20096;-73
2022/09/27 04:14:18;;;;;;;21.08;13.55;;;;;;;8.57;100.00;98713.16;4999043;28;20038;-73
2022/09/27 04:16:44;;;;;;;22.10;13.93;;;;;;;8.61;100.00;98718.59;5015466;28;20112;-73
2022/09/27 04:19:11;;;;;;;22.15;14.50;;;;;;;8.65;100.00;98714.22;5015438;28;20454;-72
2022/09/27 04:21:45;;;;;;;18.42;14.00;;;;;;;8.70;100.00;98721.97;5014758;28;20034;-74
2022/09/27 04:24:11;;;;;;;19.67;13.65;;;;;;;8.70;100.00;98716.28;5015033;28;20034;-73
2022/09/27 04:26:41;;;;;;;20.48;13.52;;;;;;;8.72;100.00;98713.66;4999066;28;20040;-74
2022/09/27 04:29:08;;;;;;;21.25;13.23;;;;;;;8.74;100.00;98710.31;5016429;28;20033;-74
2022/09/27 04:31:35;;;;;;;20.77;13.38;;;;;;;8.76;100.00;98711.34;5016344;28;20084;-74
2022/09/27 04:34:06;;;;;;;20.40;12.73;;;;;;;8.73;100.00;98712.38;4998927;28;20076;-73
2022/09/27 04:36:40;;;;;;;22.52;15.27;;;;;;;8.74;100.00;98710.31;5016664;28;20034;-73
2022/09/27 04:39:07;;;;;;;22.48;14.93;;;;;;;8.76;100.00;98711.34;5016170;28;20116;-74
2022/09/27 04:41:34;;;;;;;23.35;14.65;;;;;;;8.72;100.00;98719.38;4998619;28;20061;-74
2022/09/27 04:44:05;;;;;;;22.92;13.75;;;;;;;8.71;100.00;98714.19;5015032;28;20045;-73
2022/09/27 04:46:33;;;;;;;22.88;15.60;;;;;;;8.71;100.00;98703.56;5016141;28;20038;-73
2022/09/27 04:49:00;;;;;;;26.48;16.23;;;;;;;8.74;100.00;98704.63;5015064;28;20051;-73
2022/09/27 04:51:27;;;;;;;24.92;15.82;;;;;;;8.75;100.00;98706.19;5014887;28;20061;-74
2022/09/27 04:53:56;;;;;;;25.10;15.82;;;;;;;8.77;100.00;98695.03;4998684;28;20068;-74
2022/09/27 04:56:24;;;;;;;22.73;15.10;;;;;;;8.77;100.00;98707.19;4988278;28;20033;-73
2022/09/27 04:58:50;;;;;;;25.92;16.35;;;;;;;8.75;100.00;98694.78;5034140;28;20079;-74
2022/09/27 05:01:17;;;;;;;23.88;16.27;;;;;;;8.76;100.00;98702.00;5034669;28;20033;-74
2022/09/27 05:03:42;;;;;;;26.25;15.57;;;;;;;8.77;100.00;98703.56;5035357;28;20132;-74
2022/09/27 05:06:09;;;;;;;24.35;15.48;;;;;;;8.78;100.00;98700.22;5034330;28;20103;-74
2022/09/27 05:08:36;;;;;;;23.33;15.13;;;;;;;8.76;100.00;98693.47;5035440;28;20021;-74
2022/09/27 05:11:06;;;;;;;21.02;13.48;;;;;;;8.75;100.00;98695.56;5017819;28;20052;-73
2022/09/27 05:13:33;;;;;;;23.08;14.50;;;;;;;8.73;100.00;98691.66;5034114;28;20035;-74
2022/09/27 05:16:06;;;;;;;22.90;15.35;;;;;;;8.65;100.00;98679.25;5034038;28;20052;-74
2022/09/27 05:18:32;;;;;;;22.23;14.25;;;;;;;8.72;100.00;98702.28;5034274;28;20378;-74
2022/09/27 05:21:01;;;;;;;24.23;15.05;;;;;;;8.71;100.00;98694.25;5017530;28;20467;-74
2022/09/27 05:23:27;;;;;;;22.73;14.93;;;;;;;8.73;100.00;98697.38;5035085;28;20033;-75
2022/09/27 05:25:56;;;;;;;21.83;14.73;;;;;;;8.70;100.00;98692.72;5032726;28;20029;-74
2022/09/27 05:28:23;;;;;;;24.27;14.30;;;;;;;8.70;100.00;98701.25;5034986;28;20040;-73
2022/09/27 05:30:49;;;;;;;21.40;14.02;;;;;;;8.69;100.00;98697.63;5032919;28;20044;-74
2022/09/27 05:33:14;;;;;;;23.65;14.13;;;;;;;8.69;100.00;98696.84;5000313;28;20394;-73
2022/09/27 05:35:41;;;;;;;23.00;14.40;;;;;;;8.66;100.00;98692.19;5033770;28;20033;-74
2022/09/27 05:38:11;;;;;;;22.98;14.70;;;;;;;8.67;100.00;98688.03;5034890;28;20025;-74
2022/09/27 05:40:36;;;;;;;24.83;14.73;;;;;;;8.69;100.00;98688.31;5033604;28;20041;-73
2022/09/27 05:43:02;;;;;;;23.73;14.85;;;;;;;8.73;100.00;98681.06;5033158;28;20114;-74
2022/09/27 05:45:28;;;;;;;26.25;15.05;;;;;;;8.71;100.00;98683.63;5033513;28;20404;-75
2022/09/27 05:47:56;;;;;;;23.75;14.55;;;;;;;8.79;100.00;98686.75;5016931;28;20030;-73
2022/09/27 05:50:26;;;;;;;22.17;14.07;;;;;;;8.82;100.00;98677.16;5033428;28;20025;-74
2022/09/27 05:52:53;;;;;;;25.23;14.07;;;;;;;8.89;100.00;98679.47;5017460;28;20492;-74
2022/09/27 05:55:33;;;;;;;23.55;14.35;;;;;;;8.95;100.00;98683.09;5034511;28;20038;-73
2022/09/27 05:58:03;;;;;;;23.88;13.82;;;;;;;9.00;100.00;98676.59;5034394;28;20061;-72
2022/09/27 06:00:31;;;;;;;22.25;14.10;;;;;;;9.02;100.00;98668.31;5016757;28;20040;-72
2022/09/27 06:03:04;;;;;;;22.23;14.85;;;;;;;9.04;100.00;98660.00;5016661;28;20040;-72
2022/09/27 06:05:36;;;;;;;23.67;14.02;;;;;;;9.11;100.00;98662.31;5016771;28;20030;-74
2022/09/27 06:08:08;;;;;;;25.70;15.38;;;;;;;9.12;100.00;98654.53;5016939;28;20140;-73
2022/09/27 06:10:36;;;;;;;30.17;15.07;;;;;;;9.15;100.00;98650.66;5034454;28;20379;-72
2022/09/27 06:13:07;;;;;;;24.45;15.38;;;;;;;9.16;100.00;98647.28;5016616;28;20056;-73
2022/09/27 06:15:35;;;;;;;29.60;16.02;;;;;;;9.22;100.00;98648.03;5032804;28;20477;-73
2022/09/27 06:18:06;;;;;;;58.10;17.25;;;;;;;9.26;100.00;98653.44;5031592;28;20021;-75
2022/09/27 06:20:46;;;;;;;25.50;15.07;;;;;;;9.27;100.00;98661.47;5032878;28;20041;-74
2022/09/27 06:23:17;;;;;;;27.13;15.40;;;;;;;9.31;100.00;98660.41;5032712;28;20035;-72
2022/09/27 06:25:45;;;;;;;33.00;15.77;;;;;;;9.30;100.00;98670.28;5016136;28;20040;-75
2022/09/27 06:28:12;;;;;;;34.13;16.92;;;;;;;9.32;100.00;98679.84;5032483;28;20049;-74
2022/09/27 06:30:48;;;;;;;47.78;16.45;;;;;;;9.33;100.00;98687.13;5032573;28;20453;-75
2022/09/27 06:33:19;;;;;;;24.13;14.38;;;;;;;9.36;100.00;98671.81;5032836;28;20156;-76
2022/09/27 06:35:45;;;;;;;26.98;14.75;;;;;;;9.39;100.00;98670.78;5000057;28;20367;-74
2022/09/27 06:38:14;;;;;;;23.65;14.73;;;;;;;9.40;100.00;98669.44;5016254;28;20025;-75
2022/09/27 06:40:44;;;;;;;37.33;15.52;;;;;;;9.46;100.00;98681.59;4999826;28;20064;-76
2022/09/27 06:43:18;;;;;;;24.23;14.30;;;;;;;9.44;100.00;98672.81;5016775;28;20068;-75
2022/09/27 06:45:44;;;;;;;30.15;14.27;;;;;;;9.48;100.00;98670.47;5000535;28;20470;-74
2022/09/27 06:48:11;;;;;;;22.83;13.57;;;;;;;9.47;100.00;98668.13;5032819;28;20037;-75
2022/09/27 06:50:40;;;;;;;30.98;15.05;;;;;;;9.50;100.00;98667.06;5032860;28;20100;-75
2022/09/27 06:53:12;;;;;;;24.80;14.73;;;;;;;9.60;100.00;98671.16;4999769;28;20029;-75
2022/09/27 06:55:38;;;;;;;23.30;13.95;;;;;;;9.66;100.00;98664.13;5015980;28;20382;-76
2022/09/27 07:00:52;;;;;;;53.47;16.48;;;;;;;9.79;100.00;98660.72;5032529;28;20071;-75
2022/09/27 07:03:18;;;;;;;27.30;13.50;;;;;;;9.87;100.00;98664.56;5033547;28;20121;-74
2022/09/27 07:05:55;;;;;;;165.88;30.45;;;;;;;9.94;100.00;98666.84;5015609;28;20371;-73
2022/09/27 07:08:21;;;;;;;22.52;13.50;;;;;;;10.00;100.00;98661.88;5032267;28;20557;-73
2022/09/27 07:10:49;;;;;;;19.23;12.02;;;;;;;10.06;100.00;98662.63;5015843;28;20033;-74
2022/09/27 07:13:16;;;;;;;32.25;14.02;;;;;;;10.13;100.00;98664.16;5032306;28;20034;-73
2022/09/27 07:15:41;;;;;;;39.97;15.10;;;;;;;10.14;100.00;98667.78;5015586;28;20041;-74
2022/09/27 07:18:07;;;;;;;39.10;14.27;;;;;;;10.22;100.00;98669.53;5015534;28;20025;-73
2022/09/27 07:20:36;;;;;;;23.30;12.15;;;;;;;10.25;100.00;98670.53;5015698;28;20105;-73
2022/09/27 07:23:04;;;;;;;25.65;13.10;;;;;;;10.28;100.00;98664.53;5032332;28;20056;-73
2022/09/27 07:25:31;;;;;;;23.23;11.93;;;;;;;10.32;100.00;98665.03;5032459;28;20489;-74
2022/09/27 07:28:07;;;;;;;20.42;12.43;;;;;;;10.39;100.00;98670.16;4999158;28;20105;-74
2022/09/27 07:30:34;;;;;;;19.40;12.23;;;;;;;10.39;100.00;98667.28;5015664;28;20034;-73
2022/09/27 07:33:15;;;;;;;18.00;12.05;;;;;;;10.41;100.00;98670.41;5031933;28;20029;-73
2022/09/27 07:35:42;;;;;;;60.00;16.93;;;;;;;10.40;100.00;98668.84;5033131;28;20068;-75
2022/09/27 07:38:12;;;;;;;21.75;12.75;;;;;;;10.37;100.00;98669.91;5015696;28;20040;-73
2022/09/27 07:40:39;;;;;;;21.88;12.32;;;;;;;10.32;100.00;98670.75;4999509;28;20033;-73
2022/09/27 07:43:26;;;;;;;25.42;12.98;;;;;;;10.28;100.00;98672.34;4999019;28;20034;-74
2022/09/27 07:45:55;;;;;;;43.13;16.27;;;;;;;10.23;100.00;98671.06;5031476;28;20063;-72
2022/09/27 07:48:22;;;;;;;27.75;14.35;;;;;;;10.22;100.00;98668.75;5031669;28;20029;-73
2022/09/27 07:50:48;;;;;;;36.65;15.02;;;;;;;10.21;100.00;98670.03;5031787;28;20155;-73
2022/09/27 07:53:15;;;;;;;31.65;14.52;;;;;;;10.24;100.00;98671.81;5031645;28;20120;-74
2022/09/27 07:55:41;;;;;;;23.00;13.77;;;;;;;10.24;100.00;98658.31;5016944;28;20029;-75
2022/09/27 07:58:11;;;;;;;23.98;14.63;;;;;;;10.29;100.00;98660.38;5035158;28;20041;-74
2022/09/27 08:00:39;;;;;;;26.42;13.43;;;;;;;10.35;100.00;98657.47;5003008;28;20445;-76
2022/09/27 08:03:16;;;;;;;21.20;12.77;;;;;;;10.40;100.00;98648.84;5035597;28;20116;-75
2022/09/27 08:06:01;;;;;;;21.10;12.60;;;;;;;10.48;100.00;98646.97;5019310;28;20061;-76
2022/09/27 08:08:27;;;;;;;20.13;12.70;;;;;;;10.57;100.00;98639.38;5018762;28;20099;-76
2022/09/27 08:10:53;;;;;;;19.95;12.70;;;;;;;10.65;100.00;98643.97;5019458;28;20025;-74
2022/09/27 08:13:18;;;;;;;22.42;13.00;;;;;;;10.72;100.00;98637.66;5036915;28;20051;-74
2022/09/27 08:15:44;;;;;;;20.58;12.07;;;;;;;10.82;100.00;98643.78;5035175;28;20466;-74
2022/09/27 08:18:11;;;;;;;22.92;11.95;;;;;;;10.85;100.00;98639.84;5018634;28;20034;-76
2022/09/27 08:20:38;;;;;;;20.38;12.57;;;;;;;10.90;100.00;98639.03;5036241;28;20040;-76
2022/09/27 08:23:12;;;;;;;19.98;12.13;;;;;;;10.99;100.00;98647.25;5036360;28;20025;-77
2022/09/27 08:25:38;;;;;;;23.50;11.70;;;;;;;10.96;100.00;98640.53;5034934;28;20025;-75
2022/09/27 08:28:05;;;;;;;19.33;12.10;;;;;;;11.02;100.00;98645.41;5018499;28;20029;-76
2022/09/27 08:30:31;;;;;;;19.15;11.38;;;;;;;11.10;100.00;98652.06;5034865;28;20474;-76
2022/09/27 08:32:59;;;;;;;20.73;11.32;;;;;;;11.13;100.00;98648.16;5034814;28;20079;-75
2022/09/27 08:35:28;;;;;;;17.23;12.43;;;;;;;11.15;100.00;98649.16;5002059;28;20437;-75
2022/09/27 08:37:56;;;;;;;22.67;11.70;;;;;;;11.18;100.00;98650.16;5034827;28;20060;-75
2022/09/27 08:40:27;;;;;;;19.48;11.77;;;;;;;11.22;100.00;98667.81;5018204;28;20025;-76
2022/09/27 08:43:00;;;;;;;24.00;12.55;;;;;;;11.25;100.00;98658.16;5034808;28;20043;-76
2022/09/27 08:45:39;;;;;;;29.50;13.70;;;;;;;11.27;100.00;98659.16;5035779;28;20064;-75
2022/09/27 08:48:13;;;;;;;25.42;12.60;;;;;;;11.28;100.00;98660.69;5035967;28;20087;-77
2022/09/27 08:50:44;;;;;;;18.48;11.60;;;;;;;11.31;100.00;98656.78;5034709;28;20032;-76
2022/09/27 08:53:33;;;;;;;18.92;11.85;;;;;;;11.34;100.00;98660.63;5017971;28;20041;-76
2022/09/27 08:56:02;;;;;;;18.73;11.95;;;;;;;11.39;100.00;98652.00;5034633;28;20029;-77
2022/09/27 08:58:35;;;;;;;61.78;16.00;;;;;;;11.46;100.00;98659.19;5034156;28;20045;-76
2022/09/27 09:01:05;;;;;;;79.15;20.83;;;;;;;11.56;100.00;98662.44;5034417;28;20033;-75
2022/09/27 09:03:34;;;;;;;75.20;19.05;;;;;;;11.72;100.00;98673.66;5001643;28;20090;-74
2022/09/27 09:06:02;;;;;;;40.80;14.98;;;;;;;11.87;100.00;98661.75;5017343;28;20029;-75
2022/09/27 09:08:52;;;;;;;34.45;14.18;;;;;;;12.03;100.00;98662.81;5034580;28;20083;-73
2022/09/27 09:14:50;;;;;;;30.30;13.25;;;;;;;12.36;100.00;98664.38;5035387;28;20516;-74
2022/09/27 09:17:35;;;;;;;29.90;11.75;;;;;;;12.43;100.00;98661.69;5035087;28;20125;-74
2022/09/27 09:20:16;;;;;;;20.17;11.82;;;;;;;12.48;100.00;98651.47;5033907;28;20029;-74
2022/09/27 09:23:04;;;;;;;22.02;10.30;;;;;;;12.52;100.00;98643.31;5033958;28;20036;-74
2022/09/27 09:25:45;;;;;;;24.98;12.10;;;;;;;12.66;100.00;98648.53;5033718;28;20032;-74
2022/09/27 09:28:31;;;;;;;16.40;11.02;;;;;;;12.78;100.00;98639.72;5034867;28;20033;-75
2022/09/27 09:31:06;;;;;;;15.35;10.52;;;;;;;12.91;100.00;98636.88;5034822;28;20033;-75
2022/09/27 09:33:38;;;;;;;16.98;10.63;;;;;;;13.03;100.00;98636.13;5034617;28;20053;-74
2022/09/27 09:36:14;;;;;;;13.85;9.75;;;;;;;13.18;100.00;98637.66;5033778;28;20033;-74
2022/09/27 09:38:48;;;;;;;20.20;10.50;;;;;;;13.28;100.00;98633.03;5033482;28;20036;-74
2022/09/27 09:41:35;;;;;;;18.05;9.80;;;;;;;13.36;100.00;98626.06;5017210;28;20037;-76
2022/09/27 09:44:25;;;;;;;15.65;8.82;;;;;;;13.53;100.00;98626.53;5034677;28;20029;-76
2022/09/27 09:46:54;;;;;;;43.03;10.95;;;;;;;13.68;100.00;98616.56;5028569;28;20041;-74
2022/09/27 09:49:33;;;;;;;37.00;11.45;;;;;;;13.85;100.00;98623.44;5016781;28;20080;-73
2022/09/27 09:52:17;;;;;;;29.13;10.20;;;;;;;14.07;100.00;98627.13;5016451;28;20482;-73
2022/09/27 09:54:54;;;;;;;21.08;9.77;;;;;;;14.23;100.00;98623.09;5033199;28;20063;-72
2022/09/27 09:58:06;;;;;;;16.10;9.40;;;;;;;14.39;100.00;98622.66;5034514;28;20091;-72
2022/09/27 10:00:32;;;;;;;18.58;9.93;;;;;;;14.46;100.00;98618.31;5026816;28;20133;-74
2022/09/27 10:03:00;;;;;;;17.63;10.07;;;;;;;14.46;100.00;98614.69;5033828;28;20033;-74
2022/09/27 10:05:27;;;;;;;19.45;9.38;;;;;;;14.42;100.00;98621.56;5016752;28;20036;-74
2022/09/27 10:08:03;;;;;;;30.95;11.05;;;;;;;14.37;100.00;98613.84;5032737;28;20033;-73
2022/09/27 10:10:29;;;;;;;81.38;17.35;;;;;;;14.35;100.00;98616.50;5032891;28;20021;-73
2022/09/27 10:12:56;;;;;;;17.80;9.80;;;;;;;14.36;100.00;98620.91;5016290;28;20029;-75
2022/09/27 10:15:28;;;;;;;41.65;12.48;;;;;;;14.39;100.00;98622.66;5032797;28;20028;-74
2022/09/27 10:17:57;;;;;;;40.60;11.93;;;;;;;14.44;100.00;98603.72;5033089;28;20040;-73
2022/09/27 10:20:38;;;;;;;26.95;11.55;;;;;;;14.42;100.00;98603.53;5016771;28;20528;-74
2022/09/27 10:23:10;;;;;;;70.47;15.55;;;;;;;14.38;100.00;98603.09;5016274;28;20382;-73
2022/09/27 10:25:50;;;;;;;17.92;10.10;;;;;;;14.36;100.00;98597.16;5032775;28;20036;-73
2022/09/27 10:28:38;;;;;;;14.63;10.55;;;;;;;14.34;100.00;98609.22;5033482;28;20486;-74
2022/09/27 10:31:09;;;;;;;14.43;10.05;;;;;;;14.23;100.00;98597.25;5032445;28;20108;-74
2022/09/27 10:33:37;;;;;;;17.77;11.02;;;;;;;14.08;100.00;98591.34;5034136;28;20124;-73
2022/09/27 10:36:20;;;;;;;16.73;11.18;;;;;;;13.90;100.00;98590.19;5016426;28;20080;-73
2022/09/27 10:38:53;;;;;;;15.98;10.90;;;;;;;13.76;100.00;98595.22;5033239;28;20068;-73
2022/09/27 10:41:25;;;;;;;18.67;11.48;;;;;;;13.74;100.00;98588.50;5016098;28;20083;-74
2022/09/27 10:43:52;;;;;;;18.70;11.13;;;;;;;13.68;100.00;98596.47;5032417;28;20493;-74
2022/09/27 10:46:28;;;;;;;16.67;12.07;;;;;;;13.65;100.00;98603.28;5032318;28;20092;-75
2022/09/27 10:49:24;;;;;;;17.60;11.73;;;;;;;13.56;100.00;98607.41;5032499;28;20037;-74
2022/09/27 10:51:53;;;;;;;32.35;13.27;;;;;;;13.48;100.00;98606.53;5033675;28;20064;-73
2022/09/27 10:54:26;;;;;;;34.08;12.65;;;;;;;13.38;100.00;98606.22;5015796;28;20025;-73
2022/09/27 10:56:58;;;;;;;27.13;12.13;;;;;;;13.28;100.00;98613.72;5032526;28;20102;-74
2022/09/27 10:59:24;;;;;;;21.57;12.37;;;;;;;13.20;100.00;98612.06;5032056;28;20100;-73
2022/09/27 11:01:50;;;;;;;19.83;11.23;;;;;;;13.13;100.00;98611.41;5015831;28;20116;-73
2022/09/27 11:04:36;;;;;;;21.75;11.55;;;;;;;13.10;100.00;98611.72;5015612;28;20088;-73
2022/09/27 11:07:18;;;;;;;19.20;11.43;;;;;;;13.00;100.00;98607.75;5031658;28;20080;-73
2022/09/27 11:10:01;;;;;;;21.65;12.25;;;;;;;12.92;100.00;98613.38;5032082;28;20120;-74
2022/09/27 11:12:29;;;;;;;21.25;11.57;;;;;;;12.91;100.00;98611.84;5032273;28;20104;-73
2022/09/27 11:15:02;;;;;;;17.50;10.77;;;;;;;12.93;100.00;98608.44;5033326;28;20030;-72
2022/09/27 11:17:38;;;;;;;22.40;11.23;;;;;;;12.93;100.00;98606.34;4999175;28;20037;-74
2022/09/27 11:20:36;;;;;;;32.45;12.88;;;;;;;12.95;100.00;98600.03;5015558;28;20037;-73
2022/09/27 11:23:15;;;;;;;26.88;11.20;;;;;;;13.02;100.00;98599.38;5028974;28;20055;-73
2022/09/27 11:25:45;;;;;;;29.98;11.95;;;;;;;13.04;100.00;98605.34;5031951;28;20099;-73
2022/09/27 11:28:42;;;;;;;31.52;11.27;;;;;;;13.12;100.00;98609.88;5033122;28;20176;-73
2022/09/27 11:31:24;;;;;;;17.88;12.05;;;;;;;13.23;100.00;98606.00;5034360;28;20033;-75
2022/09/27 11:34:31;;;;;;;21.83;11.65;;;;;;;13.35;100.00;98603.66;5037098;28;20056;-74
2022/09/27 11:37:38;;;;;;;20.23;11.18;;;;;;;13.53;100.00;98594.19;5015815;28;20034;-74
2022/09/27 11:40:23;;;;;;;18.08;10.38;;;;;;;13.71;100.00;98590.38;5035586;28;20390;-73
2022/09/27 11:43:08;;;;;;;20.75;11.48;;;;;;;13.85;100.00;98582.47;5035450;28;20036;-72
2022/09/27 11:46:15;;;;;;;24.83;10.32;;;;;;;14.05;100.00;98587.47;5036958;28;20033;-74
2022/09/27 11:49:02;;;;;;;19.02;10.75;;;;;;;14.33;100.00;98578.91;5032735;28;20550;-73